sensor_id;sensor_type;location;lat;lon;timestamp;P1;durP1;ratioP1;P2;durP2;ratioP2
47960;SDS011;33721;48.852;9.936;2022-12-07T00:03:37;24.05;;;10.70;;
47960;SDS011;33721;48.852;9.936;2022-12-07T00:06:04;24.52;;;11.10;;
47960;SDS011;33721;48.852;9.936;2022-12-07T00:08:32;23.63;;;11.00;;
47960;SDS011;33721;48.852;9.936;2022-12-07T00:11:02;23.77;;;10.75;;
47960;SDS011;33721;48.852;9.936;2022-12-07T00:13:28;26.30;;;11.20;;
47960;SDS011;33721;48.852;9.936;2022-12-07T00:15:54;26.05;;;11.38;;
47960;SDS011;33721;48.852;9.936;2022-12-07T00:18:19;24.98;;;11.13;;
47960;SDS011;33721;48.852;9.936;2022-12-07T00:20:45;28.23;;;11.57;;
47960;SDS011;33721;48.852;9.936;2022-12-07T00:23:11;27.52;;;11.20;;
47960;SDS011;33721;48.852;9.936;2022-12-07T00:25:36;27.30;;;12.40;;
47960;SDS011;33721;48.852;9.936;2022-12-07T00:28:02;24.23;;;10.82;;
47960;SDS011;33721;48.852;9.936;2022-12-07T00:30:28;26.13;;;11.40;;
47960;SDS011;33721;48.852;9.936;2022-12-07T00:32:53;29.02;;;12.20;;
47960;SDS011;33721;48.852;9.936;2022-12-07T00:35:19;25.98;;;11.40;;
47960;SDS011;33721;48.852;9.936;2022-12-07T00:37:44;25.48;;;11.57;;
47960;SDS011;33721;48.852;9.936;2022-12-07T00:40:10;28.05;;;12.13;;
47960;SDS011;33721;48.852;9.936;2022-12-07T00:42:36;30.70;;;12.95;;
47960;SDS011;33721;48.852;9.936;2022-12-07T00:45:02;28.42;;;12.73;;
47960;SDS011;33721;48.852;9.936;2022-12-07T00:47:28;24.55;;;11.15;;
47960;SDS011;33721;48.852;9.936;2022-12-07T00:49:53;27.50;;;12.15;;
47960;SDS011;33721;48.852;9.936;2022-12-07T00:52:19;26.80;;;12.20;;
47960;SDS011;33721;48.852;9.936;2022-12-07T00:54:44;32.65;;;12.88;;
47960;SDS011;33721;48.852;9.936;2022-12-07T00:57:10;28.25;;;12.80;;
47960;SDS011;33721;48.852;9.936;2022-12-07T00:59:36;24.83;;;11.05;;
47960;SDS011;33721;48.852;9.936;2022-12-07T01:02:01;30.52;;;12.27;;
47960;SDS011;33721;48.852;9.936;2022-12-07T01:04:27;27.95;;;12.57;;
47960;SDS011;33721;48.852;9.936;2022-12-07T01:06:52;28.42;;;11.63;;
47960;SDS011;33721;48.852;9.936;2022-12-07T01:09:18;27.90;;;12.23;;
47960;SDS011;33721;48.852;9.936;2022-12-07T01:11:44;30.23;;;12.57;;
47960;SDS011;33721;48.852;9.936;2022-12-07T01:14:09;26.70;;;11.90;;
47960;SDS011;33721;48.852;9.936;2022-12-07T01:16:35;29.20;;;12.30;;
47960;SDS011;33721;48.852;9.936;2022-12-07T01:19:01;31.08;;;12.55;;
47960;SDS011;33721;48.852;9.936;2022-12-07T01:21:30;28.58;;;11.68;;
47960;SDS011;33721;48.852;9.936;2022-12-07T01:24:02;27.80;;;11.05;;
47960;SDS011;33721;48.852;9.936;2022-12-07T01:26:30;28.48;;;11.85;;
47960;SDS011;33721;48.852;9.936;2022-12-07T01:28:56;27.33;;;11.45;;
47960;SDS011;33721;48.852;9.936;2022-12-07T01:31:24;26.42;;;11.25;;
47960;SDS011;33721;48.852;9.936;2022-12-07T01:33:51;28.27;;;11.85;;
47960;SDS011;33721;48.852;9.936;2022-12-07T01:36:23;28.58;;;11.88;;
47960;SDS011;33721;48.852;9.936;2022-12-07T01:38:54;26.35;;;11.65;;
47960;SDS011;33721;48.852;9.936;2022-12-07T01:41:22;29.33;;;11.93;;
47960;SDS011;33721;48.852;9.936;2022-12-07T01:46:33;25.52;;;11.07;;
47960;SDS011;33721;48.852;9.936;2022-12-07T01:48:59;25.88;;;11.45;;
47960;SDS011;33721;48.852;9.936;2022-12-07T01:51:26;27.05;;;11.70;;
47960;SDS011;33721;48.852;9.936;2022-12-07T01:53:52;26.83;;;11.27;;
47960;SDS011;33721;48.852;9.936;2022-12-07T01:56:19;25.85;;;12.32;;
47960;SDS011;33721;48.852;9.936;2022-12-07T01:58:49;23.65;;;10.88;;
47960;SDS011;33721;48.852;9.936;2022-12-07T02:01:17;22.75;;;10.50;;
47960;SDS011;33721;48.852;9.936;2022-12-07T02:03:43;23.73;;;10.75;;
47960;SDS011;33721;48.852;9.936;2022-12-07T02:06:10;28.17;;;11.90;;
47960;SDS011;33721;48.852;9.936;2022-12-07T02:08:39;25.70;;;10.90;;
47960;SDS011;33721;48.852;9.936;2022-12-07T02:11:06;29.45;;;10.82;;
47960;SDS011;33721;48.852;9.936;2022-12-07T02:13:33;26.38;;;11.13;;
47960;SDS011;33721;48.852;9.936;2022-12-07T02:16:08;22.90;;;10.23;;
47960;SDS011;33721;48.852;9.936;2022-12-07T02:21:43;25.02;;;11.07;;
47960;SDS011;33721;48.852;9.936;2022-12-07T02:24:30;27.50;;;11.27;;
47960;SDS011;33721;48.852;9.936;2022-12-07T02:27:28;29.23;;;11.85;;
47960;SDS011;33721;48.852;9.936;2022-12-07T02:30:01;28.45;;;12.23;;
47960;SDS011;33721;48.852;9.936;2022-12-07T02:32:42;31.15;;;12.02;;
47960;SDS011;33721;48.852;9.936;2022-12-07T02:45:53;27.00;;;11.57;;
47960;SDS011;33721;48.852;9.936;2022-12-07T02:48:23;29.75;;;11.48;;
47960;SDS011;33721;48.852;9.936;2022-12-07T02:50:50;25.33;;;11.40;;
47960;SDS011;33721;48.852;9.936;2022-12-07T02:53:31;29.92;;;11.90;;
47960;SDS011;33721;48.852;9.936;2022-12-07T02:56:01;28.60;;;11.93;;
47960;SDS011;33721;48.852;9.936;2022-12-07T02:58:34;30.95;;;12.02;;
47960;SDS011;33721;48.852;9.936;2022-12-07T03:01:40;31.70;;;12.10;;
47960;SDS011;33721;48.852;9.936;2022-12-07T03:07:08;29.63;;;12.05;;
47960;SDS011;33721;48.852;9.936;2022-12-07T03:12:19;30.45;;;12.75;;
47960;SDS011;33721;48.852;9.936;2022-12-07T03:14:51;36.25;;;13.48;;
47960;SDS011;33721;48.852;9.936;2022-12-07T03:17:26;32.58;;;13.35;;
47960;SDS011;33721;48.852;9.936;2022-12-07T03:19:57;32.63;;;13.27;;
47960;SDS011;33721;48.852;9.936;2022-12-07T03:22:25;33.70;;;12.55;;
47960;SDS011;33721;48.852;9.936;2022-12-07T03:27:24;32.35;;;12.15;;
47960;SDS011;33721;48.852;9.936;2022-12-07T03:29:56;32.33;;;12.73;;
47960;SDS011;33721;48.852;9.936;2022-12-07T03:35:03;36.08;;;13.55;;
47960;SDS011;33721;48.852;9.936;2022-12-07T03:37:39;28.55;;;12.10;;
47960;SDS011;33721;48.852;9.936;2022-12-07T03:42:42;31.10;;;12.77;;
47960;SDS011;33721;48.852;9.936;2022-12-07T03:45:08;36.17;;;13.40;;
47960;SDS011;33721;48.852;9.936;2022-12-07T03:47:38;30.75;;;12.65;;
47960;SDS011;33721;48.852;9.936;2022-12-07T03:50:25;28.75;;;11.80;;
47960;SDS011;33721;48.852;9.936;2022-12-07T03:53:00;29.85;;;12.05;;
47960;SDS011;33721;48.852;9.936;2022-12-07T03:55:34;32.85;;;12.23;;
47960;SDS011;33721;48.852;9.936;2022-12-07T03:58:04;30.80;;;12.32;;
47960;SDS011;33721;48.852;9.936;2022-12-07T04:00:32;33.58;;;13.23;;
47960;SDS011;33721;48.852;9.936;2022-12-07T04:02:58;30.55;;;12.00;;
47960;SDS011;33721;48.852;9.936;2022-12-07T04:05:24;35.65;;;13.68;;
47960;SDS011;33721;48.852;9.936;2022-12-07T04:07:50;35.20;;;14.43;;
47960;SDS011;33721;48.852;9.936;2022-12-07T04:10:16;34.65;;;14.13;;
47960;SDS011;33721;48.852;9.936;2022-12-07T04:12:41;35.47;;;13.38;;
47960;SDS011;33721;48.852;9.936;2022-12-07T04:15:07;39.38;;;15.05;;
47960;SDS011;33721;48.852;9.936;2022-12-07T04:17:33;38.40;;;14.75;;
47960;SDS011;33721;48.852;9.936;2022-12-07T04:19:59;36.92;;;14.25;;
47960;SDS011;33721;48.852;9.936;2022-12-07T04:22:24;33.25;;;13.77;;
47960;SDS011;33721;48.852;9.936;2022-12-07T04:24:50;38.92;;;14.85;;
47960;SDS011;33721;48.852;9.936;2022-12-07T04:27:15;38.15;;;13.73;;
47960;SDS011;33721;48.852;9.936;2022-12-07T04:29:41;36.88;;;14.45;;
47960;SDS011;33721;48.852;9.936;2022-12-07T04:32:07;36.67;;;14.77;;
47960;SDS011;33721;48.852;9.936;2022-12-07T04:34:32;36.58;;;15.05;;
47960;SDS011;33721;48.852;9.936;2022-12-07T04:36:58;37.88;;;15.25;;
47960;SDS011;33721;48.852;9.936;2022-12-07T04:39:25;43.30;;;16.58;;
47960;SDS011;33721;48.852;9.936;2022-12-07T04:41:55;39.97;;;14.50;;
47960;SDS011;33721;48.852;9.936;2022-12-07T04:44:21;44.22;;;17.05;;
47960;SDS011;33721;48.852;9.936;2022-12-07T04:46:49;42.42;;;15.27;;
47960;SDS011;33721;48.852;9.936;2022-12-07T04:49:15;42.03;;;15.68;;
47960;SDS011;33721;48.852;9.936;2022-12-07T04:51:42;49.25;;;16.65;;
47960;SDS011;33721;48.852;9.936;2022-12-07T04:54:08;38.35;;;14.52;;
47960;SDS011;33721;48.852;9.936;2022-12-07T04:56:34;51.08;;;16.83;;
47960;SDS011;33721;48.852;9.936;2022-12-07T04:59:00;46.97;;;17.60;;
47960;SDS011;33721;48.852;9.936;2022-12-07T05:01:27;45.55;;;17.05;;
47960;SDS011;33721;48.852;9.936;2022-12-07T05:03:52;51.90;;;17.02;;
47960;SDS011;33721;48.852;9.936;2022-12-07T05:06:18;50.78;;;17.73;;
47960;SDS011;33721;48.852;9.936;2022-12-07T05:08:44;47.22;;;17.20;;
47960;SDS011;33721;48.852;9.936;2022-12-07T05:11:10;50.58;;;17.25;;
47960;SDS011;33721;48.852;9.936;2022-12-07T05:13:57;54.90;;;18.05;;
47960;SDS011;33721;48.852;9.936;2022-12-07T05:16:22;53.08;;;17.55;;
47960;SDS011;33721;48.852;9.936;2022-12-07T05:18:48;45.78;;;16.50;;
47960;SDS011;33721;48.852;9.936;2022-12-07T05:21:14;46.88;;;16.63;;
47960;SDS011;33721;48.852;9.936;2022-12-07T05:23:39;48.15;;;17.15;;
47960;SDS011;33721;48.852;9.936;2022-12-07T05:26:05;46.75;;;17.13;;
47960;SDS011;33721;48.852;9.936;2022-12-07T05:28:30;53.97;;;18.10;;
47960;SDS011;33721;48.852;9.936;2022-12-07T05:30:56;48.85;;;17.17;;
47960;SDS011;33721;48.852;9.936;2022-12-07T05:33:22;50.05;;;18.00;;
47960;SDS011;33721;48.852;9.936;2022-12-07T05:35:47;42.47;;;16.55;;
47960;SDS011;33721;48.852;9.936;2022-12-07T05:38:13;48.67;;;16.80;;
47960;SDS011;33721;48.852;9.936;2022-12-07T05:40:38;41.72;;;15.40;;
47960;SDS011;33721;48.852;9.936;2022-12-07T05:43:04;43.03;;;16.10;;
47960;SDS011;33721;48.852;9.936;2022-12-07T05:45:30;48.35;;;17.08;;
47960;SDS011;33721;48.852;9.936;2022-12-07T05:47:55;43.33;;;15.93;;
47960;SDS011;33721;48.852;9.936;2022-12-07T05:50:21;40.00;;;15.48;;
47960;SDS011;33721;48.852;9.936;2022-12-07T05:52:47;44.13;;;16.15;;
47960;SDS011;33721;48.852;9.936;2022-12-07T05:55:12;42.45;;;15.73;;
47960;SDS011;33721;48.852;9.936;2022-12-07T05:57:38;44.15;;;16.73;;
47960;SDS011;33721;48.852;9.936;2022-12-07T06:00:04;44.17;;;15.57;;
47960;SDS011;33721;48.852;9.936;2022-12-07T06:02:30;47.45;;;17.38;;
47960;SDS011;33721;48.852;9.936;2022-12-07T06:04:56;43.72;;;15.77;;
47960;SDS011;33721;48.852;9.936;2022-12-07T06:07:22;39.60;;;15.77;;
47960;SDS011;33721;48.852;9.936;2022-12-07T06:09:47;40.83;;;15.50;;
47960;SDS011;33721;48.852;9.936;2022-12-07T06:12:13;44.22;;;15.02;;
47960;SDS011;33721;48.852;9.936;2022-12-07T06:14:58;42.50;;;14.32;;
47960;SDS011;33721;48.852;9.936;2022-12-07T06:17:24;43.72;;;15.50;;
47960;SDS011;33721;48.852;9.936;2022-12-07T06:19:49;42.28;;;15.35;;
47960;SDS011;33721;48.852;9.936;2022-12-07T06:22:15;38.53;;;15.05;;
47960;SDS011;33721;48.852;9.936;2022-12-07T06:24:41;39.35;;;15.60;;
47960;SDS011;33721;48.852;9.936;2022-12-07T06:27:07;42.90;;;15.65;;
47960;SDS011;33721;48.852;9.936;2022-12-07T06:29:33;41.42;;;15.70;;
47960;SDS011;33721;48.852;9.936;2022-12-07T06:31:59;42.00;;;15.63;;
47960;SDS011;33721;48.852;9.936;2022-12-07T06:34:25;42.17;;;15.52;;
47960;SDS011;33721;48.852;9.936;2022-12-07T06:36:52;35.88;;;13.98;;
47960;SDS011;33721;48.852;9.936;2022-12-07T06:39:24;43.88;;;15.93;;
47960;SDS011;33721;48.852;9.936;2022-12-07T06:41:51;41.83;;;15.52;;
47960;SDS011;33721;48.852;9.936;2022-12-07T06:44:18;42.30;;;15.88;;
47960;SDS011;33721;48.852;9.936;2022-12-07T06:46:45;41.72;;;15.40;;
47960;SDS011;33721;48.852;9.936;2022-12-07T06:49:10;43.85;;;14.70;;
47960;SDS011;33721;48.852;9.936;2022-12-07T06:51:36;38.63;;;15.00;;
47960;SDS011;33721;48.852;9.936;2022-12-07T06:54:06;41.30;;;14.50;;
47960;SDS011;33721;48.852;9.936;2022-12-07T06:56:33;40.17;;;16.00;;
47960;SDS011;33721;48.852;9.936;2022-12-07T06:58:59;42.85;;;15.18;;
47960;SDS011;33721;48.852;9.936;2022-12-07T07:01:24;37.67;;;14.68;;
47960;SDS011;33721;48.852;9.936;2022-12-07T07:03:50;43.85;;;14.70;;
47960;SDS011;33721;48.852;9.936;2022-12-07T07:06:15;38.67;;;14.95;;
47960;SDS011;33721;48.852;9.936;2022-12-07T07:08:41;39.67;;;14.45;;
47960;SDS011;33721;48.852;9.936;2022-12-07T07:11:08;42.20;;;14.95;;
47960;SDS011;33721;48.852;9.936;2022-12-07T07:13:34;39.42;;;14.68;;
47960;SDS011;33721;48.852;9.936;2022-12-07T07:16:00;41.90;;;14.95;;
47960;SDS011;33721;48.852;9.936;2022-12-07T07:18:26;40.83;;;15.02;;
47960;SDS011;33721;48.852;9.936;2022-12-07T07:20:52;36.75;;;14.63;;
47960;SDS011;33721;48.852;9.936;2022-12-07T07:23:18;40.13;;;14.95;;
47960;SDS011;33721;48.852;9.936;2022-12-07T07:25:45;40.17;;;15.18;;
47960;SDS011;33721;48.852;9.936;2022-12-07T07:28:11;43.85;;;15.55;;
47960;SDS011;33721;48.852;9.936;2022-12-07T07:30:37;40.67;;;14.57;;
47960;SDS011;33721;48.852;9.936;2022-12-07T07:33:03;41.95;;;15.05;;
47960;SDS011;33721;48.852;9.936;2022-12-07T07:35:30;39.17;;;14.52;;
47960;SDS011;33721;48.852;9.936;2022-12-07T07:37:58;36.90;;;14.93;;
47960;SDS011;33721;48.852;9.936;2022-12-07T07:40:24;41.42;;;13.80;;
47960;SDS011;33721;48.852;9.936;2022-12-07T07:42:51;40.17;;;14.40;;
47960;SDS011;33721;48.852;9.936;2022-12-07T07:45:18;40.15;;;14.45;;
47960;SDS011;33721;48.852;9.936;2022-12-07T07:47:44;44.38;;;15.00;;
47960;SDS011;33721;48.852;9.936;2022-12-07T07:50:10;37.88;;;14.40;;
47960;SDS011;33721;48.852;9.936;2022-12-07T07:52:36;38.83;;;15.23;;
47960;SDS011;33721;48.852;9.936;2022-12-07T07:55:02;37.53;;;14.00;;
47960;SDS011;33721;48.852;9.936;2022-12-07T07:57:28;39.75;;;13.98;;
47960;SDS011;33721;48.852;9.936;2022-12-07T07:59:53;36.50;;;15.10;;
47960;SDS011;33721;48.852;9.936;2022-12-07T08:02:19;40.45;;;14.85;;
47960;SDS011;33721;48.852;9.936;2022-12-07T08:04:46;40.65;;;14.85;;
47960;SDS011;33721;48.852;9.936;2022-12-07T08:07:13;42.13;;;14.75;;
47960;SDS011;33721;48.852;9.936;2022-12-07T08:09:39;41.08;;;15.07;;
47960;SDS011;33721;48.852;9.936;2022-12-07T08:12:05;41.55;;;14.70;;
47960;SDS011;33721;48.852;9.936;2022-12-07T08:14:31;41.60;;;15.50;;
47960;SDS011;33721;48.852;9.936;2022-12-07T08:16:57;39.33;;;14.82;;
47960;SDS011;33721;48.852;9.936;2022-12-07T08:19:22;42.92;;;15.07;;
47960;SDS011;33721;48.852;9.936;2022-12-07T08:21:49;46.85;;;15.70;;
47960;SDS011;33721;48.852;9.936;2022-12-07T08:24:14;45.42;;;15.65;;
47960;SDS011;33721;48.852;9.936;2022-12-07T08:26:41;43.67;;;16.02;;
47960;SDS011;33721;48.852;9.936;2022-12-07T08:29:07;40.83;;;15.48;;
47960;SDS011;33721;48.852;9.936;2022-12-07T08:31:33;44.75;;;15.65;;
47960;SDS011;33721;48.852;9.936;2022-12-07T08:33:58;42.72;;;15.43;;
47960;SDS011;33721;48.852;9.936;2022-12-07T08:36:24;37.75;;;14.15;;
47960;SDS011;33721;48.852;9.936;2022-12-07T08:38:50;35.78;;;13.68;;
47960;SDS011;33721;48.852;9.936;2022-12-07T08:41:19;40.35;;;14.48;;
47960;SDS011;33721;48.852;9.936;2022-12-07T08:43:44;41.57;;;14.97;;
47960;SDS011;33721;48.852;9.936;2022-12-07T08:49:02;36.58;;;14.80;;
47960;SDS011;33721;48.852;9.936;2022-12-07T08:51:51;38.20;;;13.25;;
47960;SDS011;33721;48.852;9.936;2022-12-07T08:54:17;43.47;;;15.07;;
47960;SDS011;33721;48.852;9.936;2022-12-07T08:56:44;36.28;;;13.50;;
47960;SDS011;33721;48.852;9.936;2022-12-07T08:59:13;32.75;;;12.18;;
47960;SDS011;33721;48.852;9.936;2022-12-07T09:01:40;37.63;;;13.48;;
47960;SDS011;33721;48.852;9.936;2022-12-07T09:04:06;36.38;;;13.60;;
47960;SDS011;33721;48.852;9.936;2022-12-07T09:06:32;35.47;;;11.90;;
47960;SDS011;33721;48.852;9.936;2022-12-07T09:08:58;34.10;;;12.23;;
47960;SDS011;33721;48.852;9.936;2022-12-07T09:11:26;34.65;;;12.60;;
47960;SDS011;33721;48.852;9.936;2022-12-07T09:13:52;29.30;;;11.40;;
47960;SDS011;33721;48.852;9.936;2022-12-07T09:16:18;30.60;;;12.40;;
47960;SDS011;33721;48.852;9.936;2022-12-07T09:18:43;29.60;;;11.68;;
47960;SDS011;33721;48.852;9.936;2022-12-07T09:21:09;28.45;;;10.65;;
47960;SDS011;33721;48.852;9.936;2022-12-07T09:23:35;28.55;;;10.48;;
47960;SDS011;33721;48.852;9.936;2022-12-07T09:26:01;26.92;;;10.07;;
47960;SDS011;33721;48.852;9.936;2022-12-07T09:28:27;25.80;;;9.65;;
47960;SDS011;33721;48.852;9.936;2022-12-07T09:30:53;31.73;;;10.60;;
47960;SDS011;33721;48.852;9.936;2022-12-07T09:33:19;27.13;;;10.88;;
47960;SDS011;33721;48.852;9.936;2022-12-07T09:35:46;28.40;;;11.18;;
47960;SDS011;33721;48.852;9.936;2022-12-07T09:38:13;26.35;;;10.38;;
47960;SDS011;33721;48.852;9.936;2022-12-07T09:40:39;31.50;;;11.18;;
47960;SDS011;33721;48.852;9.936;2022-12-07T09:43:11;26.58;;;10.82;;
47960;SDS011;33721;48.852;9.936;2022-12-07T09:45:39;26.25;;;10.48;;
47960;SDS011;33721;48.852;9.936;2022-12-07T09:48:05;28.75;;;10.60;;
47960;SDS011;33721;48.852;9.936;2022-12-07T09:50:45;24.35;;;9.55;;
47960;SDS011;33721;48.852;9.936;2022-12-07T09:53:24;28.38;;;10.65;;
47960;SDS011;33721;48.852;9.936;2022-12-07T09:56:01;28.75;;;10.27;;
47960;SDS011;33721;48.852;9.936;2022-12-07T09:58:28;25.98;;;10.30;;
47960;SDS011;33721;48.852;9.936;2022-12-07T10:01:16;26.50;;;9.98;;
47960;SDS011;33721;48.852;9.936;2022-12-07T10:04:30;30.67;;;11.32;;
47960;SDS011;33721;48.852;9.936;2022-12-07T10:06:35;25.48;;;10.23;;
47960;SDS011;33721;48.852;9.936;2022-12-07T10:09:07;22.58;;;10.23;;
47960;SDS011;33721;48.852;9.936;2022-12-07T10:11:34;26.17;;;10.85;;
47960;SDS011;33721;48.852;9.936;2022-12-07T10:14:10;26.45;;;10.80;;
47960;SDS011;33721;48.852;9.936;2022-12-07T10:16:39;26.45;;;10.75;;
47960;SDS011;33721;48.852;9.936;2022-12-07T10:21:59;25.73;;;10.43;;
47960;SDS011;33721;48.852;9.936;2022-12-07T10:24:26;22.08;;;9.77;;
47960;SDS011;33721;48.852;9.936;2022-12-07T10:26:52;26.42;;;11.00;;
47960;SDS011;33721;48.852;9.936;2022-12-07T10:40:19;24.52;;;10.48;;
47960;SDS011;33721;48.852;9.936;2022-12-07T10:42:27;27.73;;;10.70;;
47960;SDS011;33721;48.852;9.936;2022-12-07T10:45:13;23.70;;;9.60;;
47960;SDS011;33721;48.852;9.936;2022-12-07T10:47:44;24.95;;;10.48;;
47960;SDS011;33721;48.852;9.936;2022-12-07T10:58:41;30.73;;;11.73;;
47960;SDS011;33721;48.852;9.936;2022-12-07T11:01:43;27.00;;;10.15;;
47960;SDS011;33721;48.852;9.936;2022-12-07T11:07:19;26.58;;;10.52;;
47960;SDS011;33721;48.852;9.936;2022-12-07T11:19:10;18.92;;;7.95;;
47960;SDS011;33721;48.852;9.936;2022-12-07T11:37:34;25.05;;;9.32;;
47960;SDS011;33721;48.852;9.936;2022-12-07T11:40:15;16.98;;;7.57;;
47960;SDS011;33721;48.852;9.936;2022-12-07T11:42:49;17.73;;;7.32;;
47960;SDS011;33721;48.852;9.936;2022-12-07T11:45:24;20.95;;;7.72;;
47960;SDS011;33721;48.852;9.936;2022-12-07T11:50:46;19.23;;;7.78;;
47960;SDS011;33721;48.852;9.936;2022-12-07T11:53:18;18.63;;;7.60;;
47960;SDS011;33721;48.852;9.936;2022-12-07T11:56:09;16.25;;;7.40;;
47960;SDS011;33721;48.852;9.936;2022-12-07T11:58:54;22.38;;;7.40;;
47960;SDS011;33721;48.852;9.936;2022-12-07T12:06:35;18.77;;;7.85;;
47960;SDS011;33721;48.852;9.936;2022-12-07T12:09:14;20.48;;;7.72;;
47960;SDS011;33721;48.852;9.936;2022-12-07T12:22:26;21.55;;;7.53;;
47960;SDS011;33721;48.852;9.936;2022-12-07T12:25:02;21.15;;;8.23;;
47960;SDS011;33721;48.852;9.936;2022-12-07T12:27:33;18.27;;;8.57;;
47960;SDS011;33721;48.852;9.936;2022-12-07T12:30:02;19.20;;;7.80;;
47960;SDS011;33721;48.852;9.936;2022-12-07T12:37:51;18.90;;;7.80;;
47960;SDS011;33721;48.852;9.936;2022-12-07T12:42:56;19.42;;;7.50;;
47960;SDS011;33721;48.852;9.936;2022-12-07T12:45:29;19.80;;;8.40;;
47960;SDS011;33721;48.852;9.936;2022-12-07T12:48:00;18.23;;;7.07;;
47960;SDS011;33721;48.852;9.936;2022-12-07T12:51:35;20.25;;;8.52;;
47960;SDS011;33721;48.852;9.936;2022-12-07T12:54:05;19.00;;;7.68;;
47960;SDS011;33721;48.852;9.936;2022-12-07T12:56:50;19.70;;;7.90;;
47960;SDS011;33721;48.852;9.936;2022-12-07T12:59:29;17.52;;;7.25;;
47960;SDS011;33721;48.852;9.936;2022-12-07T13:02:09;17.58;;;6.75;;
47960;SDS011;33721;48.852;9.936;2022-12-07T13:15:42;21.95;;;8.15;;
47960;SDS011;33721;48.852;9.936;2022-12-07T13:18:25;20.15;;;7.93;;
47960;SDS011;33721;48.852;9.936;2022-12-07T13:26:20;16.20;;;6.80;;
47960;SDS011;33721;48.852;9.936;2022-12-07T13:34:00;17.23;;;7.03;;
47960;SDS011;33721;48.852;9.936;2022-12-07T13:36:29;15.80;;;6.63;;
47960;SDS011;33721;48.852;9.936;2022-12-07T13:39:10;18.10;;;7.60;;
47960;SDS011;33721;48.852;9.936;2022-12-07T13:41:36;17.05;;;7.10;;
47960;SDS011;33721;48.852;9.936;2022-12-07T13:49:21;16.85;;;6.75;;
47960;SDS011;33721;48.852;9.936;2022-12-07T13:51:49;14.35;;;7.13;;
47960;SDS011;33721;48.852;9.936;2022-12-07T13:54:16;18.63;;;6.70;;
47960;SDS011;33721;48.852;9.936;2022-12-07T13:56:42;14.57;;;6.53;;
47960;SDS011;33721;48.852;9.936;2022-12-07T13:59:16;17.40;;;7.53;;
47960;SDS011;33721;48.852;9.936;2022-12-07T14:01:48;16.13;;;7.18;;
47960;SDS011;33721;48.852;9.936;2022-12-07T14:07:18;16.95;;;6.95;;
47960;SDS011;33721;48.852;9.936;2022-12-07T14:09:57;14.68;;;7.28;;
47960;SDS011;33721;48.852;9.936;2022-12-07T14:12:23;16.17;;;6.82;;
47960;SDS011;33721;48.852;9.936;2022-12-07T14:14:50;15.75;;;7.55;;
47960;SDS011;33721;48.852;9.936;2022-12-07T14:17:19;15.95;;;7.15;;
47960;SDS011;33721;48.852;9.936;2022-12-07T14:19:49;14.18;;;6.85;;
47960;SDS011;33721;48.852;9.936;2022-12-07T14:22:31;13.20;;;6.82;;
47960;SDS011;33721;48.852;9.936;2022-12-07T14:27:57;18.35;;;7.45;;
47960;SDS011;33721;48.852;9.936;2022-12-07T14:30:28;15.00;;;6.90;;
47960;SDS011;33721;48.852;9.936;2022-12-07T14:32:59;17.05;;;7.60;;
47960;SDS011;33721;48.852;9.936;2022-12-07T14:35:26;16.35;;;7.40;;
47960;SDS011;33721;48.852;9.936;2022-12-07T14:37:53;13.73;;;6.82;;
47960;SDS011;33721;48.852;9.936;2022-12-07T14:40:23;17.30;;;7.47;;
47960;SDS011;33721;48.852;9.936;2022-12-07T14:43:11;17.17;;;7.95;;
47960;SDS011;33721;48.852;9.936;2022-12-07T14:45:39;19.83;;;8.35;;
47960;SDS011;33721;48.852;9.936;2022-12-07T14:48:05;18.35;;;7.97;;
47960;SDS011;33721;48.852;9.936;2022-12-07T14:50:35;18.33;;;8.25;;
47960;SDS011;33721;48.852;9.936;2022-12-07T14:53:06;20.92;;;8.77;;
47960;SDS011;33721;48.852;9.936;2022-12-07T14:55:37;16.13;;;7.55;;
47960;SDS011;33721;48.852;9.936;2022-12-07T14:58:03;18.05;;;8.60;;
47960;SDS011;33721;48.852;9.936;2022-12-07T15:00:29;18.17;;;8.30;;
47960;SDS011;33721;48.852;9.936;2022-12-07T15:02:55;17.83;;;7.93;;
47960;SDS011;33721;48.852;9.936;2022-12-07T15:05:21;18.80;;;8.38;;
47960;SDS011;33721;48.852;9.936;2022-12-07T15:07:47;21.67;;;9.38;;
47960;SDS011;33721;48.852;9.936;2022-12-07T15:10:23;19.33;;;9.25;;
47960;SDS011;33721;48.852;9.936;2022-12-07T15:12:58;19.02;;;8.55;;
47960;SDS011;33721;48.852;9.936;2022-12-07T15:15:44;15.00;;;7.43;;
47960;SDS011;33721;48.852;9.936;2022-12-07T15:18:10;19.73;;;8.52;;
47960;SDS011;33721;48.852;9.936;2022-12-07T15:20:36;19.63;;;9.50;;
47960;SDS011;33721;48.852;9.936;2022-12-07T15:23:02;19.42;;;8.85;;
47960;SDS011;33721;48.852;9.936;2022-12-07T15:25:27;19.25;;;8.18;;
47960;SDS011;33721;48.852;9.936;2022-12-07T15:27:53;19.35;;;8.25;;
47960;SDS011;33721;48.852;9.936;2022-12-07T15:30:19;22.55;;;7.55;;
47960;SDS011;33721;48.852;9.936;2022-12-07T15:32:48;17.38;;;7.78;;
47960;SDS011;33721;48.852;9.936;2022-12-07T15:35:17;17.00;;;7.88;;
47960;SDS011;33721;48.852;9.936;2022-12-07T15:37:43;24.85;;;8.98;;
47960;SDS011;33721;48.852;9.936;2022-12-07T15:40:09;19.35;;;8.35;;
47960;SDS011;33721;48.852;9.936;2022-12-07T15:42:35;20.55;;;8.68;;
47960;SDS011;33721;48.852;9.936;2022-12-07T15:45:01;23.17;;;9.40;;
47960;SDS011;33721;48.852;9.936;2022-12-07T15:47:34;20.20;;;8.90;;
47960;SDS011;33721;48.852;9.936;2022-12-07T15:52:30;20.98;;;8.73;;
47960;SDS011;33721;48.852;9.936;2022-12-07T15:54:56;45.25;;;16.63;;
47960;SDS011;33721;48.852;9.936;2022-12-07T15:57:22;35.90;;;15.27;;
47960;SDS011;33721;48.852;9.936;2022-12-07T15:59:48;24.85;;;11.85;;
47960;SDS011;33721;48.852;9.936;2022-12-07T16:02:13;23.58;;;10.95;;
47960;SDS011;33721;48.852;9.936;2022-12-07T16:04:39;25.98;;;11.38;;
47960;SDS011;33721;48.852;9.936;2022-12-07T16:07:05;24.88;;;11.35;;
47960;SDS011;33721;48.852;9.936;2022-12-07T16:09:31;28.73;;;12.13;;
47960;SDS011;33721;48.852;9.936;2022-12-07T16:11:56;27.25;;;11.93;;
47960;SDS011;33721;48.852;9.936;2022-12-07T16:14:22;28.10;;;11.85;;
47960;SDS011;33721;48.852;9.936;2022-12-07T16:16:48;30.42;;;11.18;;
47960;SDS011;33721;48.852;9.936;2022-12-07T16:19:13;29.08;;;11.57;;
47960;SDS011;33721;48.852;9.936;2022-12-07T16:21:39;29.17;;;11.52;;
47960;SDS011;33721;48.852;9.936;2022-12-07T16:24:05;26.83;;;12.30;;
47960;SDS011;33721;48.852;9.936;2022-12-07T16:26:32;26.63;;;11.75;;
47960;SDS011;33721;48.852;9.936;2022-12-07T16:28:58;25.17;;;11.73;;
47960;SDS011;33721;48.852;9.936;2022-12-07T16:31:24;29.38;;;12.05;;
47960;SDS011;33721;48.852;9.936;2022-12-07T16:33:54;25.90;;;11.25;;
47960;SDS011;33721;48.852;9.936;2022-12-07T16:38:49;27.00;;;11.50;;
47960;SDS011;33721;48.852;9.936;2022-12-07T16:41:15;31.60;;;12.85;;
47960;SDS011;33721;48.852;9.936;2022-12-07T16:43:41;36.60;;;12.70;;
47960;SDS011;33721;48.852;9.936;2022-12-07T16:46:07;32.17;;;13.02;;
47960;SDS011;33721;48.852;9.936;2022-12-07T16:48:39;30.55;;;12.50;;
47960;SDS011;33721;48.852;9.936;2022-12-07T16:51:06;36.22;;;13.95;;
47960;SDS011;33721;48.852;9.936;2022-12-07T16:53:37;30.55;;;12.82;;
47960;SDS011;33721;48.852;9.936;2022-12-07T16:56:15;37.78;;;13.32;;
47960;SDS011;33721;48.852;9.936;2022-12-07T16:58:44;30.83;;;12.10;;
47960;SDS011;33721;48.852;9.936;2022-12-07T17:01:13;32.83;;;12.75;;
47960;SDS011;33721;48.852;9.936;2022-12-07T17:03:41;29.83;;;13.40;;